Pasco, WA

4:41 AM PST on February 23, 2017 (GMT -0800)
Madison Park | | Change Station

Elev 505 ft 46.28 °N, 119.15 °W | Updated 32 seconds ago

Clear
Clear
23.3 °F
Feels Like 23 °F
N
0.0
Wind Variable Wind from ESE

Today
High -- | Low -- °F
--% Chance of Precip.
Yesterday
High -- | Low -- °F
Precip. -- in
Pressure 30.15 in
Visibility 9.0 miles
Clouds Clear
Windchill 23 °F
Dew Point 22 °F
Humidity 96%
Rainfall 0.00 in
Snow Depth Not available.
6:45 AM 5:34 PM
Waning Crescent, 10% visible
METAR KPSC 231153Z AUTO 00000KT 9SM CLR M03/M04 A3014 RMK AO2 SLP210 I1000 I6000 T10331044 11011 21033 53001
Pressure 30.15 in
Visibility 9.0 miles
Clouds Clear
Windchill 23 °F
Dew Point 22 °F
Humidity 96%
Rainfall 0.00 in
Snow Depth Not available.
6:45 AM 5:34 PM
Waning Crescent, 10% visible
METAR KPSC 231153Z AUTO 00000KT 9SM CLR M03/M04 A3014 RMK AO2 SLP210 I1000 I6000 T10331044 11011 21033 53001

Get Your Daily Forecast Email!

Thanks for signing up!

Be on the lookout for a verification email in your inbox.

You'll start receiving the daily forecast at 8 AM.

×

10-Day Weather Forecast

Almanac

Astronomy

Feb. 23, 2017 Rise Set
Actual Time
Civil Twilight
Nautical Twilight
Astronomical Twilight
Moon
Length of Visible Light
Length of Day
Tomorrow will be .
, % of the Moon is Illuminated

Today's Extremes

State Highs State Lows

Community

WunderPhotos

Upload Photos

1,962,540 photos uploaded!

WunderBlog® & News

Nearby

Air Quality

  Air Quality AQ Index Pollutant
Not available.

Snow Depth

Station Depth Elevation

Earthquake Activity

City Distance Mag. Time & Date
Minimum magnitude displayed is 2.5.

Coastal Water Temperatures

Place Temperature

Stations

Nearby Weather Stations

Station Location Temp. Windchill Dew Point Humidity Wind Precip. Elev Updated Type
                   

Watches & Warnings

There are currently no watches in effect.